sensor_id;sensor_type;location;lat;lon;timestamp;P1;durP1;ratioP1;P2;durP2;ratioP2
19199;SDS011;9732;52.498;5.408;2022-08-14T00:00:19;9.63;;;7.25;;
19199;SDS011;9732;52.498;5.408;2022-08-14T00:02:48;10.27;;;8.18;;
19199;SDS011;9732;52.498;5.408;2022-08-14T00:05:16;13.25;;;7.65;;
19199;SDS011;9732;52.498;5.408;2022-08-14T00:07:44;11.90;;;7.07;;
19199;SDS011;9732;52.498;5.408;2022-08-14T00:10:13;12.27;;;7.47;;
19199;SDS011;9732;52.498;5.408;2022-08-14T00:12:42;9.20;;;7.97;;
19199;SDS011;9732;52.498;5.408;2022-08-14T00:15:12;11.13;;;6.90;;
19199;SDS011;9732;52.498;5.408;2022-08-14T00:17:41;11.95;;;7.90;;
19199;SDS011;9732;52.498;5.408;2022-08-14T00:20:10;8.55;;;7.30;;
19199;SDS011;9732;52.498;5.408;2022-08-14T00:22:37;9.88;;;7.70;;
19199;SDS011;9732;52.498;5.408;2022-08-14T00:25:04;12.20;;;8.23;;
19199;SDS011;9732;52.498;5.408;2022-08-14T00:27:32;12.25;;;8.10;;
19199;SDS011;9732;52.498;5.408;2022-08-14T00:29:59;9.57;;;8.25;;
19199;SDS011;9732;52.498;5.408;2022-08-14T00:32:26;9.68;;;7.50;;
19199;SDS011;9732;52.498;5.408;2022-08-14T00:34:52;9.60;;;8.20;;
19199;SDS011;9732;52.498;5.408;2022-08-14T00:37:21;17.25;;;8.55;;
19199;SDS011;9732;52.498;5.408;2022-08-14T00:39:48;13.75;;;9.23;;
19199;SDS011;9732;52.498;5.408;2022-08-14T00:42:18;10.90;;;7.97;;
19199;SDS011;9732;52.498;5.408;2022-08-14T00:44:45;10.18;;;8.85;;
19199;SDS011;9732;52.498;5.408;2022-08-14T00:47:12;11.30;;;8.50;;
19199;SDS011;9732;52.498;5.408;2022-08-14T00:49:39;16.70;;;8.90;;
19199;SDS011;9732;52.498;5.408;2022-08-14T00:52:05;12.65;;;9.35;;
19199;SDS011;9732;52.498;5.408;2022-08-14T00:54:34;11.95;;;8.77;;
19199;SDS011;9732;52.498;5.408;2022-08-14T00:57:03;13.38;;;8.50;;
19199;SDS011;9732;52.498;5.408;2022-08-14T00:59:30;11.45;;;9.10;;
19199;SDS011;9732;52.498;5.408;2022-08-14T01:04:26;15.65;;;9.45;;
19199;SDS011;9732;52.498;5.408;2022-08-14T01:06:56;9.63;;;8.57;;
19199;SDS011;9732;52.498;5.408;2022-08-14T01:09:24;10.13;;;8.80;;
19199;SDS011;9732;52.498;5.408;2022-08-14T01:11:54;10.52;;;8.52;;
19199;SDS011;9732;52.498;5.408;2022-08-14T01:14:22;12.45;;;8.55;;
19199;SDS011;9732;52.498;5.408;2022-08-14T01:16:49;11.40;;;8.95;;
19199;SDS011;9732;52.498;5.408;2022-08-14T01:19:16;16.10;;;9.35;;
19199;SDS011;9732;52.498;5.408;2022-08-14T01:22:01;12.88;;;8.98;;
19199;SDS011;9732;52.498;5.408;2022-08-14T01:24:31;12.48;;;8.63;;
19199;SDS011;9732;52.498;5.408;2022-08-14T01:26:58;11.93;;;8.93;;
19199;SDS011;9732;52.498;5.408;2022-08-14T01:29:25;12.55;;;9.82;;
19199;SDS011;9732;52.498;5.408;2022-08-14T01:31:53;16.52;;;9.30;;
19199;SDS011;9732;52.498;5.408;2022-08-14T01:34:25;12.85;;;9.60;;
19199;SDS011;9732;52.498;5.408;2022-08-14T01:36:52;10.63;;;9.25;;
19199;SDS011;9732;52.498;5.408;2022-08-14T01:39:20;13.35;;;9.00;;
19199;SDS011;9732;52.498;5.408;2022-08-14T01:41:47;12.68;;;9.25;;
19199;SDS011;9732;52.498;5.408;2022-08-14T01:44:20;11.80;;;9.38;;
19199;SDS011;9732;52.498;5.408;2022-08-14T01:46:50;15.35;;;9.50;;
19199;SDS011;9732;52.498;5.408;2022-08-14T01:49:18;11.98;;;9.15;;
19199;SDS011;9732;52.498;5.408;2022-08-14T01:51:47;12.23;;;9.68;;
19199;SDS011;9732;52.498;5.408;2022-08-14T01:54:23;14.43;;;9.20;;
19199;SDS011;9732;52.498;5.408;2022-08-14T01:56:50;14.52;;;9.48;;
19199;SDS011;9732;52.498;5.408;2022-08-14T01:59:21;14.30;;;9.20;;
19199;SDS011;9732;52.498;5.408;2022-08-14T02:01:53;10.40;;;8.57;;
19199;SDS011;9732;52.498;5.408;2022-08-14T02:04:21;10.88;;;9.10;;
19199;SDS011;9732;52.498;5.408;2022-08-14T02:06:49;13.63;;;9.60;;
19199;SDS011;9732;52.498;5.408;2022-08-14T02:09:17;11.43;;;9.40;;
19199;SDS011;9732;52.498;5.408;2022-08-14T02:11:46;14.85;;;9.13;;
19199;SDS011;9732;52.498;5.408;2022-08-14T02:14:14;17.23;;;9.70;;
19199;SDS011;9732;52.498;5.408;2022-08-14T02:16:42;13.90;;;9.60;;
19199;SDS011;9732;52.498;5.408;2022-08-14T02:19:12;12.63;;;9.57;;
19199;SDS011;9732;52.498;5.408;2022-08-14T02:21:41;11.05;;;8.98;;
19199;SDS011;9732;52.498;5.408;2022-08-14T02:24:10;11.27;;;9.35;;
19199;SDS011;9732;52.498;5.408;2022-08-14T02:26:38;13.25;;;9.65;;
19199;SDS011;9732;52.498;5.408;2022-08-14T02:29:09;13.38;;;9.82;;
19199;SDS011;9732;52.498;5.408;2022-08-14T02:31:39;14.02;;;10.38;;
19199;SDS011;9732;52.498;5.408;2022-08-14T02:34:07;17.17;;;10.18;;
19199;SDS011;9732;52.498;5.408;2022-08-14T02:36:36;13.30;;;9.95;;
19199;SDS011;9732;52.498;5.408;2022-08-14T02:39:04;15.50;;;10.27;;
19199;SDS011;9732;52.498;5.408;2022-08-14T02:41:32;13.55;;;10.43;;
19199;SDS011;9732;52.498;5.408;2022-08-14T02:43:59;15.00;;;10.63;;
19199;SDS011;9732;52.498;5.408;2022-08-14T02:46:28;15.10;;;10.63;;
19199;SDS011;9732;52.498;5.408;2022-08-14T02:48:55;13.63;;;9.82;;
19199;SDS011;9732;52.498;5.408;2022-08-14T02:51:22;13.07;;;10.15;;
19199;SDS011;9732;52.498;5.408;2022-08-14T02:53:49;13.52;;;10.85;;
19199;SDS011;9732;52.498;5.408;2022-08-14T02:56:17;15.25;;;10.82;;
19199;SDS011;9732;52.498;5.408;2022-08-14T02:58:45;13.75;;;10.10;;
19199;SDS011;9732;52.498;5.408;2022-08-14T03:01:12;16.50;;;10.68;;
19199;SDS011;9732;52.498;5.408;2022-08-14T03:03:42;14.88;;;11.27;;
19199;SDS011;9732;52.498;5.408;2022-08-14T03:06:09;12.88;;;10.80;;
19199;SDS011;9732;52.498;5.408;2022-08-14T03:08:38;16.33;;;10.63;;
19199;SDS011;9732;52.498;5.408;2022-08-14T03:11:06;19.33;;;12.38;;
19199;SDS011;9732;52.498;5.408;2022-08-14T03:13:34;14.30;;;11.32;;
19199;SDS011;9732;52.498;5.408;2022-08-14T03:16:04;17.67;;;12.00;;
19199;SDS011;9732;52.498;5.408;2022-08-14T03:18:32;17.95;;;11.95;;
19199;SDS011;9732;52.498;5.408;2022-08-14T03:21:02;14.82;;;12.10;;
19199;SDS011;9732;52.498;5.408;2022-08-14T03:23:31;13.77;;;11.18;;
19199;SDS011;9732;52.498;5.408;2022-08-14T03:25:59;16.20;;;11.45;;
19199;SDS011;9732;52.498;5.408;2022-08-14T03:28:28;17.00;;;11.57;;
19199;SDS011;9732;52.498;5.408;2022-08-14T03:30:55;15.20;;;12.50;;
19199;SDS011;9732;52.498;5.408;2022-08-14T03:33:22;16.02;;;12.13;;
19199;SDS011;9732;52.498;5.408;2022-08-14T03:35:49;16.20;;;12.80;;
19199;SDS011;9732;52.498;5.408;2022-08-14T03:38:17;15.70;;;12.23;;
19199;SDS011;9732;52.498;5.408;2022-08-14T03:40:44;21.60;;;12.30;;
19199;SDS011;9732;52.498;5.408;2022-08-14T03:43:11;15.02;;;11.75;;
19199;SDS011;9732;52.498;5.408;2022-08-14T03:45:39;17.02;;;11.25;;
19199;SDS011;9732;52.498;5.408;2022-08-14T03:48:10;15.75;;;11.70;;
19199;SDS011;9732;52.498;5.408;2022-08-14T03:50:42;15.57;;;11.93;;
19199;SDS011;9732;52.498;5.408;2022-08-14T03:53:09;15.52;;;12.05;;
19199;SDS011;9732;52.498;5.408;2022-08-14T03:55:39;21.10;;;12.80;;
19199;SDS011;9732;52.498;5.408;2022-08-14T03:58:08;15.88;;;12.23;;
19199;SDS011;9732;52.498;5.408;2022-08-14T04:00:36;16.15;;;12.52;;
19199;SDS011;9732;52.498;5.408;2022-08-14T04:03:05;14.90;;;12.90;;
19199;SDS011;9732;52.498;5.408;2022-08-14T04:05:33;18.00;;;12.52;;
19199;SDS011;9732;52.498;5.408;2022-08-14T04:08:02;17.20;;;11.70;;
19199;SDS011;9732;52.498;5.408;2022-08-14T04:10:29;15.98;;;12.05;;
19199;SDS011;9732;52.498;5.408;2022-08-14T04:12:57;18.60;;;12.20;;
19199;SDS011;9732;52.498;5.408;2022-08-14T04:15:25;15.43;;;12.13;;
19199;SDS011;9732;52.498;5.408;2022-08-14T04:17:52;16.40;;;13.10;;
19199;SDS011;9732;52.498;5.408;2022-08-14T04:20:19;19.98;;;12.50;;
19199;SDS011;9732;52.498;5.408;2022-08-14T04:22:46;19.83;;;13.13;;
19199;SDS011;9732;52.498;5.408;2022-08-14T04:25:14;16.55;;;12.82;;
19199;SDS011;9732;52.498;5.408;2022-08-14T04:27:43;18.27;;;12.50;;
19199;SDS011;9732;52.498;5.408;2022-08-14T04:30:12;16.95;;;12.60;;
19199;SDS011;9732;52.498;5.408;2022-08-14T04:32:38;17.10;;;12.40;;
19199;SDS011;9732;52.498;5.408;2022-08-14T04:35:05;18.52;;;12.52;;
19199;SDS011;9732;52.498;5.408;2022-08-14T04:37:33;18.73;;;12.90;;
19199;SDS011;9732;52.498;5.408;2022-08-14T04:40:17;16.95;;;12.70;;
19199;SDS011;9732;52.498;5.408;2022-08-14T04:43:02;20.17;;;12.38;;
19199;SDS011;9732;52.498;5.408;2022-08-14T04:45:47;16.08;;;12.30;;
19199;SDS011;9732;52.498;5.408;2022-08-14T04:48:15;19.63;;;12.73;;
19199;SDS011;9732;52.498;5.408;2022-08-14T04:50:45;16.65;;;12.55;;
19199;SDS011;9732;52.498;5.408;2022-08-14T04:53:13;19.27;;;13.07;;
19199;SDS011;9732;52.498;5.408;2022-08-14T04:55:42;17.33;;;12.82;;
19199;SDS011;9732;52.498;5.408;2022-08-14T04:58:12;18.05;;;12.75;;
19199;SDS011;9732;52.498;5.408;2022-08-14T05:00:39;19.50;;;12.40;;
19199;SDS011;9732;52.498;5.408;2022-08-14T05:03:07;17.40;;;12.95;;
19199;SDS011;9732;52.498;5.408;2022-08-14T05:05:34;16.35;;;12.52;;
19199;SDS011;9732;52.498;5.408;2022-08-14T05:08:04;17.45;;;12.90;;
19199;SDS011;9732;52.498;5.408;2022-08-14T05:10:36;17.95;;;12.55;;
19199;SDS011;9732;52.498;5.408;2022-08-14T05:13:05;20.02;;;13.27;;
19199;SDS011;9732;52.498;5.408;2022-08-14T05:15:32;18.23;;;13.27;;
19199;SDS011;9732;52.498;5.408;2022-08-14T05:18:01;19.73;;;12.50;;
19199;SDS011;9732;52.498;5.408;2022-08-14T05:20:30;15.75;;;11.77;;
19199;SDS011;9732;52.498;5.408;2022-08-14T05:22:57;18.42;;;12.25;;
19199;SDS011;9732;52.498;5.408;2022-08-14T05:25:24;20.15;;;13.32;;
19199;SDS011;9732;52.498;5.408;2022-08-14T05:27:51;16.48;;;12.63;;
19199;SDS011;9732;52.498;5.408;2022-08-14T05:30:17;19.83;;;12.88;;
19199;SDS011;9732;52.498;5.408;2022-08-14T05:32:44;17.20;;;12.70;;
19199;SDS011;9732;52.498;5.408;2022-08-14T05:35:11;17.20;;;12.00;;
19199;SDS011;9732;52.498;5.408;2022-08-14T05:37:39;19.80;;;12.63;;
19199;SDS011;9732;52.498;5.408;2022-08-14T05:40:07;18.95;;;11.95;;
19199;SDS011;9732;52.498;5.408;2022-08-14T05:42:34;16.30;;;12.75;;
19199;SDS011;9732;52.498;5.408;2022-08-14T05:45:02;17.48;;;13.05;;
19199;SDS011;9732;52.498;5.408;2022-08-14T05:47:31;15.50;;;12.23;;
19199;SDS011;9732;52.498;5.408;2022-08-14T05:49:58;19.58;;;11.95;;
19199;SDS011;9732;52.498;5.408;2022-08-14T05:52:26;16.15;;;10.88;;
19199;SDS011;9732;52.498;5.408;2022-08-14T05:54:54;20.85;;;11.27;;
19199;SDS011;9732;52.498;5.408;2022-08-14T05:57:22;21.50;;;12.80;;
19199;SDS011;9732;52.498;5.408;2022-08-14T05:59:49;16.98;;;12.10;;
19199;SDS011;9732;52.498;5.408;2022-08-14T06:02:15;15.77;;;12.52;;
19199;SDS011;9732;52.498;5.408;2022-08-14T06:04:42;16.30;;;12.30;;
19199;SDS011;9732;52.498;5.408;2022-08-14T06:07:12;16.15;;;12.82;;
19199;SDS011;9732;52.498;5.408;2022-08-14T06:09:39;17.05;;;11.80;;
19199;SDS011;9732;52.498;5.408;2022-08-14T06:12:08;18.40;;;12.82;;
19199;SDS011;9732;52.498;5.408;2022-08-14T06:14:35;14.90;;;11.85;;
19199;SDS011;9732;52.498;5.408;2022-08-14T06:17:02;15.52;;;12.05;;
19199;SDS011;9732;52.498;5.408;2022-08-14T06:19:29;13.63;;;11.73;;
19199;SDS011;9732;52.498;5.408;2022-08-14T06:21:56;17.30;;;12.65;;
19199;SDS011;9732;52.498;5.408;2022-08-14T06:24:23;18.52;;;12.35;;
19199;SDS011;9732;52.498;5.408;2022-08-14T06:26:50;16.17;;;11.98;;
19199;SDS011;9732;52.498;5.408;2022-08-14T06:29:18;17.60;;;12.52;;
19199;SDS011;9732;52.498;5.408;2022-08-14T06:31:44;16.90;;;12.52;;
19199;SDS011;9732;52.498;5.408;2022-08-14T06:34:11;15.75;;;12.63;;
19199;SDS011;9732;52.498;5.408;2022-08-14T06:36:39;17.65;;;12.18;;
19199;SDS011;9732;52.498;5.408;2022-08-14T06:39:06;21.30;;;12.65;;
19199;SDS011;9732;52.498;5.408;2022-08-14T06:41:33;18.67;;;12.93;;
19199;SDS011;9732;52.498;5.408;2022-08-14T06:43:59;16.20;;;12.52;;
19199;SDS011;9732;52.498;5.408;2022-08-14T06:46:28;15.48;;;12.27;;
19199;SDS011;9732;52.498;5.408;2022-08-14T06:48:55;19.60;;;12.35;;
19199;SDS011;9732;52.498;5.408;2022-08-14T06:51:22;15.68;;;12.30;;
19199;SDS011;9732;52.498;5.408;2022-08-14T06:53:48;14.85;;;11.88;;
19199;SDS011;9732;52.498;5.408;2022-08-14T06:56:15;16.42;;;12.68;;
19199;SDS011;9732;52.498;5.408;2022-08-14T06:58:42;14.38;;;11.80;;
19199;SDS011;9732;52.498;5.408;2022-08-14T07:01:09;19.30;;;12.75;;
19199;SDS011;9732;52.498;5.408;2022-08-14T07:03:55;17.45;;;12.57;;
19199;SDS011;9732;52.498;5.408;2022-08-14T07:06:39;17.33;;;12.05;;
19199;SDS011;9732;52.498;5.408;2022-08-14T07:09:08;15.70;;;12.57;;
19199;SDS011;9732;52.498;5.408;2022-08-14T07:11:34;19.70;;;12.70;;
19199;SDS011;9732;52.498;5.408;2022-08-14T07:14:01;15.18;;;11.70;;
19199;SDS011;9732;52.498;5.408;2022-08-14T07:16:28;15.93;;;12.38;;
19199;SDS011;9732;52.498;5.408;2022-08-14T07:18:56;14.48;;;11.60;;
19199;SDS011;9732;52.498;5.408;2022-08-14T07:21:23;15.57;;;11.70;;
19199;SDS011;9732;52.498;5.408;2022-08-14T07:23:50;14.27;;;11.85;;
19199;SDS011;9732;52.498;5.408;2022-08-14T07:26:17;15.57;;;11.07;;
19199;SDS011;9732;52.498;5.408;2022-08-14T07:28:43;17.38;;;11.57;;
19199;SDS011;9732;52.498;5.408;2022-08-14T07:31:10;14.95;;;11.85;;
19199;SDS011;9732;52.498;5.408;2022-08-14T07:33:38;16.13;;;10.93;;
19199;SDS011;9732;52.498;5.408;2022-08-14T07:36:10;13.68;;;11.15;;
19199;SDS011;9732;52.498;5.408;2022-08-14T07:38:38;15.32;;;10.90;;
19199;SDS011;9732;52.498;5.408;2022-08-14T07:41:06;12.75;;;10.32;;
19199;SDS011;9732;52.498;5.408;2022-08-14T07:43:34;17.85;;;11.18;;
19199;SDS011;9732;52.498;5.408;2022-08-14T07:46:01;16.02;;;11.55;;
19199;SDS011;9732;52.498;5.408;2022-08-14T07:48:28;11.98;;;10.68;;
19199;SDS011;9732;52.498;5.408;2022-08-14T07:50:55;17.23;;;10.65;;
19199;SDS011;9732;52.498;5.408;2022-08-14T07:53:24;13.38;;;10.82;;
19199;SDS011;9732;52.498;5.408;2022-08-14T07:55:50;15.63;;;10.88;;
19199;SDS011;9732;52.498;5.408;2022-08-14T07:58:17;16.83;;;11.07;;
19199;SDS011;9732;52.498;5.408;2022-08-14T08:00:44;14.00;;;10.23;;
19199;SDS011;9732;52.498;5.408;2022-08-14T08:03:11;14.32;;;10.13;;
19199;SDS011;9732;52.498;5.408;2022-08-14T08:05:39;13.15;;;10.77;;
19199;SDS011;9732;52.498;5.408;2022-08-14T08:08:06;12.57;;;10.30;;
19199;SDS011;9732;52.498;5.408;2022-08-14T08:10:35;13.50;;;9.57;;
19199;SDS011;9732;52.498;5.408;2022-08-14T08:13:06;13.60;;;9.88;;
19199;SDS011;9732;52.498;5.408;2022-08-14T08:15:35;13.77;;;10.05;;
19199;SDS011;9732;52.498;5.408;2022-08-14T08:18:04;19.95;;;10.85;;
19199;SDS011;9732;52.498;5.408;2022-08-14T08:20:33;12.40;;;9.57;;
19199;SDS011;9732;52.498;5.408;2022-08-14T08:23:01;13.52;;;10.13;;
19199;SDS011;9732;52.498;5.408;2022-08-14T08:25:29;12.82;;;9.88;;
19199;SDS011;9732;52.498;5.408;2022-08-14T08:27:59;10.80;;;9.27;;
19199;SDS011;9732;52.498;5.408;2022-08-14T08:30:28;11.35;;;9.60;;
19199;SDS011;9732;52.498;5.408;2022-08-14T08:32:57;11.88;;;9.90;;
19199;SDS011;9732;52.498;5.408;2022-08-14T08:35:25;14.38;;;8.85;;
19199;SDS011;9732;52.498;5.408;2022-08-14T08:37:54;12.73;;;9.15;;
19199;SDS011;9732;52.498;5.408;2022-08-14T08:40:27;12.52;;;8.77;;
19199;SDS011;9732;52.498;5.408;2022-08-14T08:42:55;11.13;;;9.23;;
19199;SDS011;9732;52.498;5.408;2022-08-14T08:45:23;10.65;;;9.13;;
19199;SDS011;9732;52.498;5.408;2022-08-14T08:47:50;12.30;;;9.30;;
19199;SDS011;9732;52.498;5.408;2022-08-14T08:50:18;15.00;;;9.38;;
19199;SDS011;9732;52.498;5.408;2022-08-14T08:52:47;10.52;;;8.43;;
19199;SDS011;9732;52.498;5.408;2022-08-14T08:55:14;10.10;;;8.80;;
19199;SDS011;9732;52.498;5.408;2022-08-14T08:57:42;10.98;;;8.90;;
19199;SDS011;9732;52.498;5.408;2022-08-14T09:00:13;9.77;;;8.52;;
19199;SDS011;9732;52.498;5.408;2022-08-14T09:02:42;10.20;;;8.43;;
19199;SDS011;9732;52.498;5.408;2022-08-14T09:05:18;12.05;;;8.13;;
19199;SDS011;9732;52.498;5.408;2022-08-14T09:07:45;12.80;;;8.68;;
19199;SDS011;9732;52.498;5.408;2022-08-14T09:10:12;10.27;;;7.95;;
19199;SDS011;9732;52.498;5.408;2022-08-14T09:12:38;10.50;;;8.30;;
19199;SDS011;9732;52.498;5.408;2022-08-14T09:15:06;11.90;;;7.75;;
19199;SDS011;9732;52.498;5.408;2022-08-14T09:17:34;10.40;;;8.35;;
19199;SDS011;9732;52.498;5.408;2022-08-14T09:20:03;10.45;;;8.15;;
19199;SDS011;9732;52.498;5.408;2022-08-14T09:22:30;13.70;;;9.43;;
19199;SDS011;9732;52.498;5.408;2022-08-14T09:24:57;9.98;;;7.90;;
19199;SDS011;9732;52.498;5.408;2022-08-14T09:27:25;8.60;;;7.70;;
19199;SDS011;9732;52.498;5.408;2022-08-14T09:29:52;13.15;;;8.65;;
19199;SDS011;9732;52.498;5.408;2022-08-14T09:32:20;10.00;;;8.02;;
19199;SDS011;9732;52.498;5.408;2022-08-14T09:34:54;12.82;;;8.30;;
19199;SDS011;9732;52.498;5.408;2022-08-14T09:37:36;10.70;;;7.65;;
19199;SDS011;9732;52.498;5.408;2022-08-14T09:40:12;10.85;;;7.75;;
19199;SDS011;9732;52.498;5.408;2022-08-14T09:42:47;8.20;;;7.40;;
19199;SDS011;9732;52.498;5.408;2022-08-14T09:45:23;9.18;;;7.22;;
19199;SDS011;9732;52.498;5.408;2022-08-14T09:47:58;9.35;;;6.95;;
19199;SDS011;9732;52.498;5.408;2022-08-14T09:50:27;9.52;;;7.30;;
19199;SDS011;9732;52.498;5.408;2022-08-14T09:52:58;11.82;;;7.30;;
19199;SDS011;9732;52.498;5.408;2022-08-14T09:55:27;11.38;;;7.57;;
19199;SDS011;9732;52.498;5.408;2022-08-14T09:58:05;8.38;;;7.05;;
19199;SDS011;9732;52.498;5.408;2022-08-14T10:00:40;9.45;;;7.07;;
19199;SDS011;9732;52.498;5.408;2022-08-14T10:03:09;8.23;;;7.35;;
19199;SDS011;9732;52.498;5.408;2022-08-14T10:05:36;10.65;;;7.25;;
19199;SDS011;9732;52.498;5.408;2022-08-14T10:08:14;13.68;;;7.25;;
19199;SDS011;9732;52.498;5.408;2022-08-14T10:10:42;11.25;;;7.40;;
19199;SDS011;9732;52.498;5.408;2022-08-14T10:13:19;8.43;;;6.97;;
19199;SDS011;9732;52.498;5.408;2022-08-14T10:15:47;7.90;;;6.70;;
19199;SDS011;9732;52.498;5.408;2022-08-14T10:18:15;7.55;;;6.85;;
19199;SDS011;9732;52.498;5.408;2022-08-14T10:20:43;7.90;;;7.10;;
19199;SDS011;9732;52.498;5.408;2022-08-14T10:23:21;10.35;;;6.75;;
19199;SDS011;9732;52.498;5.408;2022-08-14T10:25:49;10.02;;;6.78;;
19199;SDS011;9732;52.498;5.408;2022-08-14T10:28:18;9.25;;;6.53;;
19199;SDS011;9732;52.498;5.408;2022-08-14T10:30:46;8.43;;;6.80;;
19199;SDS011;9732;52.498;5.408;2022-08-14T10:33:24;7.20;;;6.50;;
19199;SDS011;9732;52.498;5.408;2022-08-14T10:35:53;6.88;;;6.18;;
19199;SDS011;9732;52.498;5.408;2022-08-14T10:38:28;6.82;;;6.20;;
19199;SDS011;9732;52.498;5.408;2022-08-14T10:41:08;8.48;;;6.18;;
19199;SDS011;9732;52.498;5.408;2022-08-14T10:43:36;8.05;;;6.35;;
19199;SDS011;9732;52.498;5.408;2022-08-14T10:46:10;6.70;;;5.95;;
19199;SDS011;9732;52.498;5.408;2022-08-14T10:48:38;6.35;;;5.82;;
19199;SDS011;9732;52.498;5.408;2022-08-14T10:51:05;7.43;;;5.75;;
19199;SDS011;9732;52.498;5.408;2022-08-14T10:53:34;6.97;;;6.28;;
19199;SDS011;9732;52.498;5.408;2022-08-14T10:56:03;9.02;;;5.60;;
19199;SDS011;9732;52.498;5.408;2022-08-14T10:58:34;7.20;;;5.97;;
19199;SDS011;9732;52.498;5.408;2022-08-14T11:01:01;8.15;;;5.75;;
19199;SDS011;9732;52.498;5.408;2022-08-14T11:03:36;6.53;;;5.93;;
19199;SDS011;9732;52.498;5.408;2022-08-14T11:06:14;6.32;;;5.55;;
19199;SDS011;9732;52.498;5.408;2022-08-14T11:08:45;8.23;;;5.90;;
19199;SDS011;9732;52.498;5.408;2022-08-14T11:11:14;7.95;;;5.78;;
19199;SDS011;9732;52.498;5.408;2022-08-14T11:13:42;7.80;;;6.07;;
19199;SDS011;9732;52.498;5.408;2022-08-14T11:16:10;13.70;;;5.88;;
19199;SDS011;9732;52.498;5.408;2022-08-14T11:18:42;5.80;;;5.20;;
19199;SDS011;9732;52.498;5.408;2022-08-14T11:21:13;6.65;;;5.32;;
19199;SDS011;9732;52.498;5.408;2022-08-14T11:23:43;7.28;;;5.40;;
19199;SDS011;9732;52.498;5.408;2022-08-14T11:26:13;6.60;;;5.15;;
19199;SDS011;9732;52.498;5.408;2022-08-14T11:28:44;5.32;;;4.70;;
19199;SDS011;9732;52.498;5.408;2022-08-14T11:31:11;6.88;;;5.50;;
19199;SDS011;9732;52.498;5.408;2022-08-14T11:33:39;6.30;;;5.20;;
19199;SDS011;9732;52.498;5.408;2022-08-14T11:36:07;5.93;;;4.63;;
19199;SDS011;9732;52.498;5.408;2022-08-14T11:38:36;4.82;;;4.43;;
19199;SDS011;9732;52.498;5.408;2022-08-14T11:41:06;8.90;;;4.88;;
19199;SDS011;9732;52.498;5.408;2022-08-14T11:43:37;6.10;;;4.32;;
19199;SDS011;9732;52.498;5.408;2022-08-14T11:46:05;11.15;;;5.03;;
19199;SDS011;9732;52.498;5.408;2022-08-14T11:48:32;5.32;;;4.80;;
19199;SDS011;9732;52.498;5.408;2022-08-14T11:51:11;4.97;;;4.57;;
19199;SDS011;9732;52.498;5.408;2022-08-14T11:53:51;6.28;;;4.88;;
19199;SDS011;9732;52.498;5.408;2022-08-14T11:56:20;5.15;;;4.68;;
19199;SDS011;9732;52.498;5.408;2022-08-14T11:58:51;4.88;;;4.38;;
19199;SDS011;9732;52.498;5.408;2022-08-14T12:01:23;4.72;;;4.28;;
19199;SDS011;9732;52.498;5.408;2022-08-14T12:03:52;6.82;;;4.55;;
19199;SDS011;9732;52.498;5.408;2022-08-14T12:06:23;4.75;;;3.80;;
19199;SDS011;9732;52.498;5.408;2022-08-14T12:08:50;4.82;;;4.05;;
19199;SDS011;9732;52.498;5.408;2022-08-14T12:11:18;6.25;;;4.28;;
19199;SDS011;9732;52.498;5.408;2022-08-14T12:13:46;5.57;;;4.07;;
19199;SDS011;9732;52.498;5.408;2022-08-14T12:16:14;4.90;;;4.40;;
19199;SDS011;9732;52.498;5.408;2022-08-14T12:18:43;4.65;;;4.07;;
19199;SDS011;9732;52.498;5.408;2022-08-14T12:21:12;4.88;;;4.38;;
19199;SDS011;9732;52.498;5.408;2022-08-14T12:23:40;5.40;;;3.88;;
19199;SDS011;9732;52.498;5.408;2022-08-14T12:26:08;5.72;;;4.00;;
19199;SDS011;9732;52.498;5.408;2022-08-14T12:28:41;6.80;;;4.55;;
19199;SDS011;9732;52.498;5.408;2022-08-14T12:31:13;4.82;;;4.10;;
19199;SDS011;9732;52.498;5.408;2022-08-14T12:33:53;4.65;;;4.25;;
19199;SDS011;9732;52.498;5.408;2022-08-14T12:36:21;4.50;;;4.10;;
19199;SDS011;9732;52.498;5.408;2022-08-14T12:38:48;4.20;;;3.80;;
19199;SDS011;9732;52.498;5.408;2022-08-14T12:41:16;3.92;;;3.63;;
19199;SDS011;9732;52.498;5.408;2022-08-14T12:43:48;5.70;;;3.75;;
19199;SDS011;9732;52.498;5.408;2022-08-14T12:46:21;4.80;;;3.83;;
19199;SDS011;9732;52.498;5.408;2022-08-14T12:48:50;4.20;;;3.80;;
19199;SDS011;9732;52.498;5.408;2022-08-14T12:51:17;7.85;;;4.70;;
19199;SDS011;9732;52.498;5.408;2022-08-14T12:53:45;4.82;;;4.30;;
19199;SDS011;9732;52.498;5.408;2022-08-14T12:56:15;6.60;;;4.97;;
19199;SDS011;9732;52.498;5.408;2022-08-14T12:58:47;4.97;;;4.57;;
19199;SDS011;9732;52.498;5.408;2022-08-14T13:01:18;5.88;;;5.38;;
19199;SDS011;9732;52.498;5.408;2022-08-14T13:03:47;6.68;;;5.60;;
19199;SDS011;9732;52.498;5.408;2022-08-14T13:06:13;6.88;;;5.05;;
19199;SDS011;9732;52.498;5.408;2022-08-14T13:08:41;7.88;;;5.50;;
19199;SDS011;9732;52.498;5.408;2022-08-14T13:11:10;5.40;;;4.60;;
19199;SDS011;9732;52.498;5.408;2022-08-14T13:13:39;6.55;;;4.43;;
19199;SDS011;9732;52.498;5.408;2022-08-14T13:16:11;8.57;;;4.47;;
19199;SDS011;9732;52.498;5.408;2022-08-14T13:18:41;5.88;;;5.38;;
19199;SDS011;9732;52.498;5.408;2022-08-14T13:21:10;12.32;;;5.60;;
19199;SDS011;9732;52.498;5.408;2022-08-14T13:23:38;8.38;;;4.88;;
19199;SDS011;9732;52.498;5.408;2022-08-14T13:26:07;6.68;;;5.57;;
19199;SDS011;9732;52.498;5.408;2022-08-14T13:28:36;8.30;;;5.53;;
19199;SDS011;9732;52.498;5.408;2022-08-14T13:31:04;11.55;;;5.50;;
19199;SDS011;9732;52.498;5.408;2022-08-14T13:33:34;5.90;;;5.15;;
19199;SDS011;9732;52.498;5.408;2022-08-14T13:36:02;6.07;;;5.47;;
19199;SDS011;9732;52.498;5.408;2022-08-14T13:38:29;8.52;;;5.78;;
19199;SDS011;9732;52.498;5.408;2022-08-14T13:40:56;6.47;;;5.28;;
19199;SDS011;9732;52.498;5.408;2022-08-14T13:43:23;7.53;;;5.70;;
19199;SDS011;9732;52.498;5.408;2022-08-14T13:45:50;5.85;;;5.30;;
19199;SDS011;9732;52.498;5.408;2022-08-14T13:48:20;7.80;;;5.97;;
19199;SDS011;9732;52.498;5.408;2022-08-14T13:50:48;8.65;;;5.65;;
19199;SDS011;9732;52.498;5.408;2022-08-14T13:53:19;5.32;;;4.82;;
19199;SDS011;9732;52.498;5.408;2022-08-14T13:55:48;7.57;;;5.68;;
19199;SDS011;9732;52.498;5.408;2022-08-14T13:58:17;10.82;;;5.75;;
19199;SDS011;9732;52.498;5.408;2022-08-14T14:00:45;6.47;;;5.05;;
19199;SDS011;9732;52.498;5.408;2022-08-14T14:03:17;5.20;;;4.68;;
19199;SDS011;9732;52.498;5.408;2022-08-14T14:05:44;6.85;;;4.78;;
19199;SDS011;9732;52.498;5.408;2022-08-14T14:08:17;8.27;;;5.50;;
19199;SDS011;9732;52.498;5.408;2022-08-14T14:10:47;5.10;;;4.60;;
19199;SDS011;9732;52.498;5.408;2022-08-14T14:13:14;5.80;;;5.20;;
19199;SDS011;9732;52.498;5.408;2022-08-14T14:15:42;10.18;;;5.80;;
19199;SDS011;9732;52.498;5.408;2022-08-14T14:18:09;6.47;;;5.53;;
19199;SDS011;9732;52.498;5.408;2022-08-14T14:20:35;6.88;;;5.38;;
19199;SDS011;9732;52.498;5.408;2022-08-14T14:23:05;9.05;;;5.95;;
19199;SDS011;9732;52.498;5.408;2022-08-14T14:25:34;9.30;;;5.85;;
19199;SDS011;9732;52.498;5.408;2022-08-14T14:28:07;7.93;;;6.00;;
19199;SDS011;9732;52.498;5.408;2022-08-14T14:30:35;8.65;;;6.15;;
19199;SDS011;9732;52.498;5.408;2022-08-14T14:33:06;9.65;;;6.30;;
19199;SDS011;9732;52.498;5.408;2022-08-14T14:35:36;9.13;;;6.60;;
19199;SDS011;9732;52.498;5.408;2022-08-14T14:38:05;8.75;;;6.72;;
19199;SDS011;9732;52.498;5.408;2022-08-14T14:40:33;8.95;;;6.38;;
19199;SDS011;9732;52.498;5.408;2022-08-14T14:43:03;6.53;;;5.82;;
19199;SDS011;9732;52.498;5.408;2022-08-14T14:45:33;9.23;;;6.10;;
19199;SDS011;9732;52.498;5.408;2022-08-14T14:48:02;7.55;;;5.88;;
19199;SDS011;9732;52.498;5.408;2022-08-14T14:50:33;9.20;;;6.00;;
19199;SDS011;9732;52.498;5.408;2022-08-14T14:53:02;13.77;;;6.28;;
19199;SDS011;9732;52.498;5.408;2022-08-14T14:55:30;7.15;;;5.63;;
19199;SDS011;9732;52.498;5.408;2022-08-14T14:57:58;6.95;;;6.25;;
19199;SDS011;9732;52.498;5.408;2022-08-14T15:00:25;6.28;;;5.60;;